sensor_id;sensor_type;location;lat;lon;timestamp;P1;durP1;ratioP1;P2;durP2;ratioP2
38653;SDS011;24413;52.450;20.706;2023-04-03T00:02:21;2.72;;;1.70;;
38653;SDS011;24413;52.450;20.706;2023-04-03T00:04:46;2.75;;;1.67;;
38653;SDS011;24413;52.450;20.706;2023-04-03T00:07:11;4.85;;;2.00;;
38653;SDS011;24413;52.450;20.706;2023-04-03T00:09:37;1.45;;;1.25;;
38653;SDS011;24413;52.450;20.706;2023-04-03T00:12:02;4.45;;;1.92;;
38653;SDS011;24413;52.450;20.706;2023-04-03T00:14:28;8.77;;;1.92;;
38653;SDS011;24413;52.450;20.706;2023-04-03T00:16:53;5.25;;;1.52;;
38653;SDS011;24413;52.450;20.706;2023-04-03T00:19:18;3.53;;;1.50;;
38653;SDS011;24413;52.450;20.706;2023-04-03T00:21:43;5.85;;;1.83;;
38653;SDS011;24413;52.450;20.706;2023-04-03T00:24:09;7.10;;;1.85;;
38653;SDS011;24413;52.450;20.706;2023-04-03T00:26:34;4.82;;;1.50;;
38653;SDS011;24413;52.450;20.706;2023-04-03T00:29:00;4.22;;;1.48;;
38653;SDS011;24413;52.450;20.706;2023-04-03T00:31:25;4.93;;;1.63;;
38653;SDS011;24413;52.450;20.706;2023-04-03T00:33:50;7.55;;;1.77;;
38653;SDS011;24413;52.450;20.706;2023-04-03T00:36:16;6.00;;;2.20;;
38653;SDS011;24413;52.450;20.706;2023-04-03T00:38:41;4.80;;;1.40;;
38653;SDS011;24413;52.450;20.706;2023-04-03T00:41:06;3.75;;;1.73;;
38653;SDS011;24413;52.450;20.706;2023-04-03T00:43:32;5.35;;;1.88;;
38653;SDS011;24413;52.450;20.706;2023-04-03T00:45:58;7.63;;;1.88;;
38653;SDS011;24413;52.450;20.706;2023-04-03T00:50:55;5.82;;;1.50;;
38653;SDS011;24413;52.450;20.706;2023-04-03T00:53:38;12.27;;;1.83;;
38653;SDS011;24413;52.450;20.706;2023-04-03T00:56:05;3.72;;;1.27;;
38653;SDS011;24413;52.450;20.706;2023-04-03T00:58:37;5.68;;;1.80;;
38653;SDS011;24413;52.450;20.706;2023-04-03T01:01:03;4.38;;;1.60;;
38653;SDS011;24413;52.450;20.706;2023-04-03T01:03:30;2.85;;;1.50;;
38653;SDS011;24413;52.450;20.706;2023-04-03T01:05:56;3.45;;;1.50;;
38653;SDS011;24413;52.450;20.706;2023-04-03T01:08:21;6.57;;;2.10;;
38653;SDS011;24413;52.450;20.706;2023-04-03T01:10:46;4.68;;;1.88;;
38653;SDS011;24413;52.450;20.706;2023-04-03T01:15:46;3.35;;;1.30;;
38653;SDS011;24413;52.450;20.706;2023-04-03T01:18:11;5.07;;;1.63;;
38653;SDS011;24413;52.450;20.706;2023-04-03T01:20:43;5.80;;;1.65;;
38653;SDS011;24413;52.450;20.706;2023-04-03T01:23:29;2.75;;;1.40;;
38653;SDS011;24413;52.450;20.706;2023-04-03T01:25:57;5.72;;;1.75;;
38653;SDS011;24413;52.450;20.706;2023-04-03T01:28:26;4.85;;;1.95;;
38653;SDS011;24413;52.450;20.706;2023-04-03T01:33:37;5.88;;;1.52;;
38653;SDS011;24413;52.450;20.706;2023-04-03T01:36:03;3.42;;;1.60;;
38653;SDS011;24413;52.450;20.706;2023-04-03T01:38:28;6.35;;;1.83;;
38653;SDS011;24413;52.450;20.706;2023-04-03T01:40:53;2.63;;;1.25;;
38653;SDS011;24413;52.450;20.706;2023-04-03T01:43:19;8.77;;;1.95;;
38653;SDS011;24413;52.450;20.706;2023-04-03T01:45:44;6.53;;;1.80;;
38653;SDS011;24413;52.450;20.706;2023-04-03T01:48:11;2.10;;;1.63;;
38653;SDS011;24413;52.450;20.706;2023-04-03T01:50:36;5.85;;;1.52;;
38653;SDS011;24413;52.450;20.706;2023-04-03T01:53:02;4.47;;;1.88;;
38653;SDS011;24413;52.450;20.706;2023-04-03T01:55:27;4.38;;;1.80;;
38653;SDS011;24413;52.450;20.706;2023-04-03T01:57:52;3.33;;;1.75;;
38653;SDS011;24413;52.450;20.706;2023-04-03T02:00:17;5.15;;;1.70;;
38653;SDS011;24413;52.450;20.706;2023-04-03T02:02:43;6.05;;;2.05;;
38653;SDS011;24413;52.450;20.706;2023-04-03T02:05:08;4.10;;;1.73;;
38653;SDS011;24413;52.450;20.706;2023-04-03T02:07:33;4.15;;;1.52;;
38653;SDS011;24413;52.450;20.706;2023-04-03T02:09:59;3.08;;;1.58;;
38653;SDS011;24413;52.450;20.706;2023-04-03T02:12:24;3.60;;;1.40;;
38653;SDS011;24413;52.450;20.706;2023-04-03T02:14:50;4.00;;;1.42;;
38653;SDS011;24413;52.450;20.706;2023-04-03T02:17:15;6.18;;;1.70;;
38653;SDS011;24413;52.450;20.706;2023-04-03T02:19:40;3.97;;;1.45;;
38653;SDS011;24413;52.450;20.706;2023-04-03T02:22:06;3.83;;;1.88;;
38653;SDS011;24413;52.450;20.706;2023-04-03T02:24:31;2.92;;;1.70;;
38653;SDS011;24413;52.450;20.706;2023-04-03T02:26:57;4.82;;;1.58;;
38653;SDS011;24413;52.450;20.706;2023-04-03T02:29:22;3.10;;;1.60;;
38653;SDS011;24413;52.450;20.706;2023-04-03T02:31:48;5.65;;;1.55;;
38653;SDS011;24413;52.450;20.706;2023-04-03T02:34:13;4.55;;;1.60;;
38653;SDS011;24413;52.450;20.706;2023-04-03T02:36:38;7.10;;;2.05;;
38653;SDS011;24413;52.450;20.706;2023-04-03T02:39:04;3.97;;;1.42;;
38653;SDS011;24413;52.450;20.706;2023-04-03T02:41:30;5.47;;;2.00;;
38653;SDS011;24413;52.450;20.706;2023-04-03T02:44:00;3.17;;;1.42;;
38653;SDS011;24413;52.450;20.706;2023-04-03T02:46:25;4.07;;;1.60;;
38653;SDS011;24413;52.450;20.706;2023-04-03T02:48:51;7.30;;;1.90;;
38653;SDS011;24413;52.450;20.706;2023-04-03T02:51:16;10.63;;;1.98;;
38653;SDS011;24413;52.450;20.706;2023-04-03T02:53:41;2.55;;;1.38;;
38653;SDS011;24413;52.450;20.706;2023-04-03T02:56:06;8.63;;;1.73;;
38653;SDS011;24413;52.450;20.706;2023-04-03T02:58:32;4.25;;;1.67;;
38653;SDS011;24413;52.450;20.706;2023-04-03T03:00:57;6.32;;;1.60;;
38653;SDS011;24413;52.450;20.706;2023-04-03T03:03:22;4.25;;;1.90;;
38653;SDS011;24413;52.450;20.706;2023-04-03T03:05:48;4.13;;;1.80;;
38653;SDS011;24413;52.450;20.706;2023-04-03T03:08:13;5.05;;;1.58;;
38653;SDS011;24413;52.450;20.706;2023-04-03T03:10:38;3.80;;;1.80;;
38653;SDS011;24413;52.450;20.706;2023-04-03T03:13:03;2.88;;;1.50;;
38653;SDS011;24413;52.450;20.706;2023-04-03T03:15:29;3.05;;;1.40;;
38653;SDS011;24413;52.450;20.706;2023-04-03T03:17:54;4.13;;;2.10;;
38653;SDS011;24413;52.450;20.706;2023-04-03T03:20:20;4.57;;;1.88;;
38653;SDS011;24413;52.450;20.706;2023-04-03T03:22:45;6.00;;;1.88;;
38653;SDS011;24413;52.450;20.706;2023-04-03T03:25:11;5.75;;;1.50;;
38653;SDS011;24413;52.450;20.706;2023-04-03T03:27:36;2.75;;;1.17;;
38653;SDS011;24413;52.450;20.706;2023-04-03T03:30:01;6.72;;;1.95;;
38653;SDS011;24413;52.450;20.706;2023-04-03T03:32:26;4.43;;;1.65;;
38653;SDS011;24413;52.450;20.706;2023-04-03T03:34:52;3.38;;;1.88;;
38653;SDS011;24413;52.450;20.706;2023-04-03T03:37:17;7.53;;;1.55;;
38653;SDS011;24413;52.450;20.706;2023-04-03T03:39:42;6.30;;;2.00;;
38653;SDS011;24413;52.450;20.706;2023-04-03T03:42:07;4.65;;;1.80;;
38653;SDS011;24413;52.450;20.706;2023-04-03T03:44:33;2.45;;;1.55;;
38653;SDS011;24413;52.450;20.706;2023-04-03T03:46:58;4.70;;;1.55;;
38653;SDS011;24413;52.450;20.706;2023-04-03T03:49:23;4.47;;;1.70;;
38653;SDS011;24413;52.450;20.706;2023-04-03T03:51:48;4.13;;;1.90;;
38653;SDS011;24413;52.450;20.706;2023-04-03T03:54:14;2.97;;;1.55;;
38653;SDS011;24413;52.450;20.706;2023-04-03T03:56:40;3.25;;;1.60;;
38653;SDS011;24413;52.450;20.706;2023-04-03T03:59:05;5.10;;;1.60;;
38653;SDS011;24413;52.450;20.706;2023-04-03T04:01:31;2.13;;;1.27;;
38653;SDS011;24413;52.450;20.706;2023-04-03T04:03:56;4.97;;;2.00;;
38653;SDS011;24413;52.450;20.706;2023-04-03T04:06:22;4.68;;;2.00;;
38653;SDS011;24413;52.450;20.706;2023-04-03T04:08:47;5.00;;;1.70;;
38653;SDS011;24413;52.450;20.706;2023-04-03T04:11:13;4.28;;;1.85;;
38653;SDS011;24413;52.450;20.706;2023-04-03T04:13:38;3.85;;;1.55;;
38653;SDS011;24413;52.450;20.706;2023-04-03T04:16:03;6.35;;;2.67;;
38653;SDS011;24413;52.450;20.706;2023-04-03T04:18:29;6.68;;;3.00;;
38653;SDS011;24413;52.450;20.706;2023-04-03T04:20:54;5.35;;;2.40;;
38653;SDS011;24413;52.450;20.706;2023-04-03T04:23:19;4.80;;;2.35;;
38653;SDS011;24413;52.450;20.706;2023-04-03T04:25:45;5.70;;;1.70;;
38653;SDS011;24413;52.450;20.706;2023-04-03T04:28:11;5.82;;;1.85;;
38653;SDS011;24413;52.450;20.706;2023-04-03T04:30:36;2.10;;;1.33;;
38653;SDS011;24413;52.450;20.706;2023-04-03T04:33:01;5.25;;;2.25;;
38653;SDS011;24413;52.450;20.706;2023-04-03T04:35:27;5.30;;;2.80;;
38653;SDS011;24413;52.450;20.706;2023-04-03T04:37:52;8.45;;;2.17;;
38653;SDS011;24413;52.450;20.706;2023-04-03T04:40:17;5.32;;;1.73;;
38653;SDS011;24413;52.450;20.706;2023-04-03T04:42:43;5.10;;;1.73;;
38653;SDS011;24413;52.450;20.706;2023-04-03T04:45:08;5.50;;;1.95;;
38653;SDS011;24413;52.450;20.706;2023-04-03T04:47:33;7.15;;;1.95;;
38653;SDS011;24413;52.450;20.706;2023-04-03T04:49:59;4.50;;;1.92;;
38653;SDS011;24413;52.450;20.706;2023-04-03T04:52:24;3.90;;;1.48;;
38653;SDS011;24413;52.450;20.706;2023-04-03T04:54:50;7.45;;;2.20;;
38653;SDS011;24413;52.450;20.706;2023-04-03T04:57:15;5.38;;;1.83;;
38653;SDS011;24413;52.450;20.706;2023-04-03T04:59:40;2.17;;;1.23;;
38653;SDS011;24413;52.450;20.706;2023-04-03T05:02:06;4.35;;;2.00;;
38653;SDS011;24413;52.450;20.706;2023-04-03T05:04:31;4.25;;;2.10;;
38653;SDS011;24413;52.450;20.706;2023-04-03T05:06:56;4.47;;;1.63;;
38653;SDS011;24413;52.450;20.706;2023-04-03T05:09:21;5.00;;;1.48;;
38653;SDS011;24413;52.450;20.706;2023-04-03T05:11:47;3.63;;;1.65;;
38653;SDS011;24413;52.450;20.706;2023-04-03T05:14:12;3.67;;;1.33;;
38653;SDS011;24413;52.450;20.706;2023-04-03T05:16:38;4.30;;;1.83;;
38653;SDS011;24413;52.450;20.706;2023-04-03T05:19:03;4.07;;;1.23;;
38653;SDS011;24413;52.450;20.706;2023-04-03T05:21:29;6.13;;;1.90;;
38653;SDS011;24413;52.450;20.706;2023-04-03T05:23:57;2.58;;;1.73;;
38653;SDS011;24413;52.450;20.706;2023-04-03T05:26:23;4.65;;;1.52;;
38653;SDS011;24413;52.450;20.706;2023-04-03T05:28:48;7.40;;;2.30;;
38653;SDS011;24413;52.450;20.706;2023-04-03T05:31:13;5.20;;;2.20;;
38653;SDS011;24413;52.450;20.706;2023-04-03T05:33:39;4.90;;;1.98;;
38653;SDS011;24413;52.450;20.706;2023-04-03T05:36:04;6.60;;;1.50;;
38653;SDS011;24413;52.450;20.706;2023-04-03T05:38:30;3.80;;;1.50;;
38653;SDS011;24413;52.450;20.706;2023-04-03T05:40:55;6.53;;;1.80;;
38653;SDS011;24413;52.450;20.706;2023-04-03T05:43:20;4.80;;;2.60;;
38653;SDS011;24413;52.450;20.706;2023-04-03T05:45:47;9.38;;;2.20;;
38653;SDS011;24413;52.450;20.706;2023-04-03T05:48:12;3.85;;;1.67;;
38653;SDS011;24413;52.450;20.706;2023-04-03T05:50:37;1.98;;;1.60;;
38653;SDS011;24413;52.450;20.706;2023-04-03T05:53:06;3.03;;;1.73;;
38653;SDS011;24413;52.450;20.706;2023-04-03T05:55:31;9.88;;;1.63;;
38653;SDS011;24413;52.450;20.706;2023-04-03T05:57:57;4.10;;;1.30;;
38653;SDS011;24413;52.450;20.706;2023-04-03T06:00:22;8.63;;;2.50;;
38653;SDS011;24413;52.450;20.706;2023-04-03T06:02:47;4.78;;;1.67;;
38653;SDS011;24413;52.450;20.706;2023-04-03T06:05:12;4.88;;;1.88;;
38653;SDS011;24413;52.450;20.706;2023-04-03T06:07:38;5.40;;;1.77;;
38653;SDS011;24413;52.450;20.706;2023-04-03T06:10:03;5.20;;;1.50;;
38653;SDS011;24413;52.450;20.706;2023-04-03T06:12:29;6.00;;;1.80;;
38653;SDS011;24413;52.450;20.706;2023-04-03T06:14:55;10.65;;;2.22;;
38653;SDS011;24413;52.450;20.706;2023-04-03T06:17:20;6.72;;;2.10;;
38653;SDS011;24413;52.450;20.706;2023-04-03T06:19:45;5.80;;;2.28;;
38653;SDS011;24413;52.450;20.706;2023-04-03T06:22:11;5.30;;;2.25;;
38653;SDS011;24413;52.450;20.706;2023-04-03T06:24:36;11.57;;;2.38;;
38653;SDS011;24413;52.450;20.706;2023-04-03T06:27:02;9.50;;;2.28;;
38653;SDS011;24413;52.450;20.706;2023-04-03T06:29:27;6.18;;;2.25;;
38653;SDS011;24413;52.450;20.706;2023-04-03T06:31:52;20.33;;;2.80;;
38653;SDS011;24413;52.450;20.706;2023-04-03T06:34:17;17.23;;;3.25;;
38653;SDS011;24413;52.450;20.706;2023-04-03T06:36:43;38.70;;;5.80;;
38653;SDS011;24413;52.450;20.706;2023-04-03T06:39:17;22.25;;;4.93;;
38653;SDS011;24413;52.450;20.706;2023-04-03T06:41:43;35.75;;;6.30;;
38653;SDS011;24413;52.450;20.706;2023-04-03T06:44:08;40.72;;;5.57;;
38653;SDS011;24413;52.450;20.706;2023-04-03T06:46:37;12.77;;;2.97;;
38653;SDS011;24413;52.450;20.706;2023-04-03T06:49:02;11.68;;;2.72;;
38653;SDS011;24413;52.450;20.706;2023-04-03T06:51:28;7.07;;;1.98;;
38653;SDS011;24413;52.450;20.706;2023-04-03T06:53:55;32.03;;;4.60;;
38653;SDS011;24413;52.450;20.706;2023-04-03T06:56:21;43.92;;;5.53;;
38653;SDS011;24413;52.450;20.706;2023-04-03T06:58:47;45.67;;;8.48;;
38653;SDS011;24413;52.450;20.706;2023-04-03T07:01:13;27.77;;;5.35;;
38653;SDS011;24413;52.450;20.706;2023-04-03T07:03:39;41.15;;;5.28;;
38653;SDS011;24413;52.450;20.706;2023-04-03T07:06:05;55.60;;;6.40;;
38653;SDS011;24413;52.450;20.706;2023-04-03T07:08:32;33.80;;;6.38;;
38653;SDS011;24413;52.450;20.706;2023-04-03T07:10:57;33.80;;;4.85;;
38653;SDS011;24413;52.450;20.706;2023-04-03T07:13:22;19.48;;;3.08;;
38653;SDS011;24413;52.450;20.706;2023-04-03T07:15:48;18.95;;;2.38;;
38653;SDS011;24413;52.450;20.706;2023-04-03T07:18:14;6.30;;;2.35;;
38653;SDS011;24413;52.450;20.706;2023-04-03T07:20:39;14.23;;;3.80;;
38653;SDS011;24413;52.450;20.706;2023-04-03T07:23:05;3.05;;;1.70;;
38653;SDS011;24413;52.450;20.706;2023-04-03T07:25:30;66.97;;;10.60;;
38653;SDS011;24413;52.450;20.706;2023-04-03T07:27:56;28.70;;;4.95;;
38653;SDS011;24413;52.450;20.706;2023-04-03T07:30:22;38.33;;;4.32;;
38653;SDS011;24413;52.450;20.706;2023-04-03T07:32:48;29.30;;;3.20;;
38653;SDS011;24413;52.450;20.706;2023-04-03T07:35:13;21.55;;;3.42;;
38653;SDS011;24413;52.450;20.706;2023-04-03T07:37:38;5.38;;;2.08;;
38653;SDS011;24413;52.450;20.706;2023-04-03T07:40:04;3.88;;;1.95;;
38653;SDS011;24413;52.450;20.706;2023-04-03T07:42:29;4.88;;;1.95;;
38653;SDS011;24413;52.450;20.706;2023-04-03T07:44:55;12.45;;;3.25;;
38653;SDS011;24413;52.450;20.706;2023-04-03T07:47:21;43.45;;;6.15;;
38653;SDS011;24413;52.450;20.706;2023-04-03T07:49:46;19.10;;;4.28;;
38653;SDS011;24413;52.450;20.706;2023-04-03T07:52:12;7.38;;;1.92;;
38653;SDS011;24413;52.450;20.706;2023-04-03T07:54:38;20.35;;;3.72;;
38653;SDS011;24413;52.450;20.706;2023-04-03T07:57:03;14.95;;;2.70;;
38653;SDS011;24413;52.450;20.706;2023-04-03T07:59:28;20.55;;;4.32;;
38653;SDS011;24413;52.450;20.706;2023-04-03T08:01:54;9.30;;;2.08;;
38653;SDS011;24413;52.450;20.706;2023-04-03T08:04:19;5.93;;;2.10;;
38653;SDS011;24413;52.450;20.706;2023-04-03T08:06:44;31.45;;;4.53;;
38653;SDS011;24413;52.450;20.706;2023-04-03T08:09:10;6.00;;;1.73;;
38653;SDS011;24413;52.450;20.706;2023-04-03T08:11:35;3.67;;;1.63;;
38653;SDS011;24413;52.450;20.706;2023-04-03T08:14:01;12.02;;;2.50;;
38653;SDS011;24413;52.450;20.706;2023-04-03T08:16:27;26.42;;;3.88;;
38653;SDS011;24413;52.450;20.706;2023-04-03T08:18:53;7.45;;;1.88;;
38653;SDS011;24413;52.450;20.706;2023-04-03T08:21:19;2.67;;;1.42;;
38653;SDS011;24413;52.450;20.706;2023-04-03T08:23:47;4.57;;;1.45;;
38653;SDS011;24413;52.450;20.706;2023-04-03T08:26:14;4.40;;;1.67;;
38653;SDS011;24413;52.450;20.706;2023-04-03T08:28:39;23.27;;;4.93;;
38653;SDS011;24413;52.450;20.706;2023-04-03T08:31:05;23.15;;;4.97;;
38653;SDS011;24413;52.450;20.706;2023-04-03T08:33:31;19.88;;;3.08;;
38653;SDS011;24413;52.450;20.706;2023-04-03T08:35:56;11.38;;;2.70;;
38653;SDS011;24413;52.450;20.706;2023-04-03T08:38:22;36.28;;;5.65;;
38653;SDS011;24413;52.450;20.706;2023-04-03T08:40:47;55.80;;;7.63;;
38653;SDS011;24413;52.450;20.706;2023-04-03T08:45:57;4.13;;;2.00;;
38653;SDS011;24413;52.450;20.706;2023-04-03T08:48:29;8.68;;;2.92;;
38653;SDS011;24413;52.450;20.706;2023-04-03T08:51:03;3.15;;;1.40;;
38653;SDS011;24413;52.450;20.706;2023-04-03T08:53:30;3.03;;;1.35;;
38653;SDS011;24413;52.450;20.706;2023-04-03T08:55:57;27.27;;;3.83;;
38653;SDS011;24413;52.450;20.706;2023-04-03T09:01:02;29.38;;;6.22;;
38653;SDS011;24413;52.450;20.706;2023-04-03T09:03:34;6.00;;;1.90;;
38653;SDS011;24413;52.450;20.706;2023-04-03T09:06:11;4.47;;;1.65;;
38653;SDS011;24413;52.450;20.706;2023-04-03T09:11:26;12.77;;;1.70;;
38653;SDS011;24413;52.450;20.706;2023-04-03T09:18:48;24.35;;;3.20;;
38653;SDS011;24413;52.450;20.706;2023-04-03T09:21:23;32.72;;;6.97;;
38653;SDS011;24413;52.450;20.706;2023-04-03T09:23:51;8.55;;;2.08;;
38653;SDS011;24413;52.450;20.706;2023-04-03T09:26:17;13.63;;;2.53;;
38653;SDS011;24413;52.450;20.706;2023-04-03T09:28:44;3.17;;;1.85;;
38653;SDS011;24413;52.450;20.706;2023-04-03T09:33:59;10.10;;;1.95;;
38653;SDS011;24413;52.450;20.706;2023-04-03T09:39:10;3.15;;;1.80;;
38653;SDS011;24413;52.450;20.706;2023-04-03T09:41:35;25.38;;;3.75;;
38653;SDS011;24413;52.450;20.706;2023-04-03T09:44:00;14.02;;;2.85;;
38653;SDS011;24413;52.450;20.706;2023-04-03T09:46:33;15.57;;;2.67;;
38653;SDS011;24413;52.450;20.706;2023-04-03T09:49:03;12.38;;;2.20;;
38653;SDS011;24413;52.450;20.706;2023-04-03T09:51:29;21.58;;;3.13;;
38653;SDS011;24413;52.450;20.706;2023-04-03T09:53:56;30.73;;;3.80;;
38653;SDS011;24413;52.450;20.706;2023-04-03T09:56:25;4.38;;;1.40;;
38653;SDS011;24413;52.450;20.706;2023-04-03T10:01:33;3.38;;;1.70;;
38653;SDS011;24413;52.450;20.706;2023-04-03T10:04:12;3.25;;;1.40;;
38653;SDS011;24413;52.450;20.706;2023-04-03T10:09:10;5.35;;;1.33;;
38653;SDS011;24413;52.450;20.706;2023-04-03T10:11:50;2.43;;;1.03;;
38653;SDS011;24413;52.450;20.706;2023-04-03T10:14:21;5.20;;;1.50;;
38653;SDS011;24413;52.450;20.706;2023-04-03T10:16:56;3.75;;;1.65;;
38653;SDS011;24413;52.450;20.706;2023-04-03T10:24:44;4.30;;;1.50;;
38653;SDS011;24413;52.450;20.706;2023-04-03T10:34:39;3.30;;;1.52;;
38653;SDS011;24413;52.450;20.706;2023-04-03T10:42:03;4.80;;;3.35;;
38653;SDS011;24413;52.450;20.706;2023-04-03T10:50:02;4.10;;;1.60;;
38653;SDS011;24413;52.450;20.706;2023-04-03T10:52:37;23.52;;;5.15;;
38653;SDS011;24413;52.450;20.706;2023-04-03T10:57:36;3.78;;;1.45;;
38653;SDS011;24413;52.450;20.706;2023-04-03T11:00:06;3.13;;;1.10;;
38653;SDS011;24413;52.450;20.706;2023-04-03T11:02:39;11.55;;;2.70;;
38653;SDS011;24413;52.450;20.706;2023-04-03T11:07:50;9.52;;;2.15;;
38653;SDS011;24413;52.450;20.706;2023-04-03T11:10:18;22.80;;;3.47;;
38653;SDS011;24413;52.450;20.706;2023-04-03T11:12:52;11.60;;;2.90;;
38653;SDS011;24413;52.450;20.706;2023-04-03T11:15:21;5.35;;;1.10;;
38653;SDS011;24413;52.450;20.706;2023-04-03T11:17:54;7.75;;;1.63;;
38653;SDS011;24413;52.450;20.706;2023-04-03T11:20:30;2.47;;;1.05;;
38653;SDS011;24413;52.450;20.706;2023-04-03T11:23:01;0.90;;;0.80;;
38653;SDS011;24413;52.450;20.706;2023-04-03T11:25:29;6.10;;;2.30;;
38653;SDS011;24413;52.450;20.706;2023-04-03T11:27:56;7.07;;;3.97;;
38653;SDS011;24413;52.450;20.706;2023-04-03T11:32:54;8.23;;;3.88;;
38653;SDS011;24413;52.450;20.706;2023-04-03T11:35:23;1.65;;;0.90;;
38653;SDS011;24413;52.450;20.706;2023-04-03T11:37:50;1.85;;;1.13;;
38653;SDS011;24413;52.450;20.706;2023-04-03T11:42:46;7.15;;;1.70;;
38653;SDS011;24413;52.450;20.706;2023-04-03T11:47:44;2.40;;;1.80;;
38653;SDS011;24413;52.450;20.706;2023-04-03T11:52:55;1.40;;;0.88;;
38653;SDS011;24413;52.450;20.706;2023-04-03T12:16:32;1.40;;;0.98;;
38653;SDS011;24413;52.450;20.706;2023-04-03T12:18:58;2.67;;;1.17;;
38653;SDS011;24413;52.450;20.706;2023-04-03T12:26:46;3.90;;;0.80;;
38653;SDS011;24413;52.450;20.706;2023-04-03T12:32:08;1.20;;;1.10;;
38653;SDS011;24413;52.450;20.706;2023-04-03T12:39:51;4.07;;;0.98;;
38653;SDS011;24413;52.450;20.706;2023-04-03T12:47:18;5.80;;;1.48;;
38653;SDS011;24413;52.450;20.706;2023-04-03T12:49:46;2.28;;;0.80;;
38653;SDS011;24413;52.450;20.706;2023-04-03T12:52:35;2.35;;;1.20;;
38653;SDS011;24413;52.450;20.706;2023-04-03T12:55:02;4.07;;;1.40;;
38653;SDS011;24413;52.450;20.706;2023-04-03T12:57:29;3.13;;;1.05;;
38653;SDS011;24413;52.450;20.706;2023-04-03T12:59:54;1.40;;;0.98;;
38653;SDS011;24413;52.450;20.706;2023-04-03T13:02:29;1.95;;;0.80;;
38653;SDS011;24413;52.450;20.706;2023-04-03T13:04:58;1.10;;;0.70;;
38653;SDS011;24413;52.450;20.706;2023-04-03T13:07:42;2.60;;;0.98;;
38653;SDS011;24413;52.450;20.706;2023-04-03T13:12:34;3.33;;;0.73;;
38653;SDS011;24413;52.450;20.706;2023-04-03T13:15:02;4.00;;;1.05;;
38653;SDS011;24413;52.450;20.706;2023-04-03T13:17:29;4.20;;;1.10;;
38653;SDS011;24413;52.450;20.706;2023-04-03T13:19:55;1.42;;;0.68;;
38653;SDS011;24413;52.450;20.706;2023-04-03T13:22:40;1.85;;;1.00;;
38653;SDS011;24413;52.450;20.706;2023-04-03T13:25:09;3.60;;;1.08;;
38653;SDS011;24413;52.450;20.706;2023-04-03T13:27:35;4.90;;;0.90;;
38653;SDS011;24413;52.450;20.706;2023-04-03T13:30:04;1.83;;;0.98;;
38653;SDS011;24413;52.450;20.706;2023-04-03T13:32:30;3.13;;;1.02;;
38653;SDS011;24413;52.450;20.706;2023-04-03T13:34:56;1.73;;;1.00;;
38653;SDS011;24413;52.450;20.706;2023-04-03T13:37:26;3.00;;;0.88;;
38653;SDS011;24413;52.450;20.706;2023-04-03T13:42:24;2.55;;;1.20;;
38653;SDS011;24413;52.450;20.706;2023-04-03T13:47:39;1.88;;;1.13;;
38653;SDS011;24413;52.450;20.706;2023-04-03T13:52:41;3.30;;;2.20;;
38653;SDS011;24413;52.450;20.706;2023-04-03T13:55:23;2.25;;;1.23;;
38653;SDS011;24413;52.450;20.706;2023-04-03T13:57:57;4.15;;;1.67;;
38653;SDS011;24413;52.450;20.706;2023-04-03T14:02:55;1.77;;;1.13;;
38653;SDS011;24413;52.450;20.706;2023-04-03T14:05:21;1.48;;;0.98;;
38653;SDS011;24413;52.450;20.706;2023-04-03T14:07:48;1.10;;;0.77;;
38653;SDS011;24413;52.450;20.706;2023-04-03T14:10:13;1.88;;;1.25;;
38653;SDS011;24413;52.450;20.706;2023-04-03T14:12:39;2.63;;;1.52;;
38653;SDS011;24413;52.450;20.706;2023-04-03T14:15:27;3.95;;;2.50;;
38653;SDS011;24413;52.450;20.706;2023-04-03T14:17:51;2.53;;;1.50;;
38653;SDS011;24413;52.450;20.706;2023-04-03T14:20:17;1.55;;;0.95;;
38653;SDS011;24413;52.450;20.706;2023-04-03T14:22:43;2.05;;;1.20;;
38653;SDS011;24413;52.450;20.706;2023-04-03T14:25:08;1.95;;;1.25;;
38653;SDS011;24413;52.450;20.706;2023-04-03T14:27:38;5.18;;;1.77;;
38653;SDS011;24413;52.450;20.706;2023-04-03T14:30:04;2.83;;;2.20;;
38653;SDS011;24413;52.450;20.706;2023-04-03T14:32:30;2.30;;;1.45;;
38653;SDS011;24413;52.450;20.706;2023-04-03T14:34:55;5.07;;;2.20;;
38653;SDS011;24413;52.450;20.706;2023-04-03T14:37:24;2.42;;;1.77;;
38653;SDS011;24413;52.450;20.706;2023-04-03T14:39:50;2.85;;;1.40;;
38653;SDS011;24413;52.450;20.706;2023-04-03T14:42:17;3.75;;;1.80;;
38653;SDS011;24413;52.450;20.706;2023-04-03T14:44:42;6.82;;;2.90;;
38653;SDS011;24413;52.450;20.706;2023-04-03T14:47:15;3.55;;;1.77;;
38653;SDS011;24413;52.450;20.706;2023-04-03T14:49:42;4.57;;;1.38;;
38653;SDS011;24413;52.450;20.706;2023-04-03T14:52:16;5.38;;;2.42;;
38653;SDS011;24413;52.450;20.706;2023-04-03T14:54:42;3.50;;;1.33;;
38653;SDS011;24413;52.450;20.706;2023-04-03T14:57:08;4.03;;;1.65;;
38653;SDS011;24413;52.450;20.706;2023-04-03T14:59:35;2.95;;;1.20;;
38653;SDS011;24413;52.450;20.706;2023-04-03T15:02:00;1.70;;;1.20;;
38653;SDS011;24413;52.450;20.706;2023-04-03T15:04:25;5.50;;;1.52;;
38653;SDS011;24413;52.450;20.706;2023-04-03T15:06:50;2.83;;;1.10;;
38653;SDS011;24413;52.450;20.706;2023-04-03T15:09:23;1.48;;;1.13;;
38653;SDS011;24413;52.450;20.706;2023-04-03T15:11:49;1.88;;;1.05;;
38653;SDS011;24413;52.450;20.706;2023-04-03T15:14:15;2.50;;;1.23;;
38653;SDS011;24413;52.450;20.706;2023-04-03T15:16:40;2.05;;;1.17;;
38653;SDS011;24413;52.450;20.706;2023-04-03T15:19:05;2.85;;;1.67;;
38653;SDS011;24413;52.450;20.706;2023-04-03T15:21:31;2.33;;;1.33;;
38653;SDS011;24413;52.450;20.706;2023-04-03T15:23:56;7.05;;;1.10;;
38653;SDS011;24413;52.450;20.706;2023-04-03T15:26:21;2.47;;;1.50;;
38653;SDS011;24413;52.450;20.706;2023-04-03T15:28:47;3.42;;;1.58;;
38653;SDS011;24413;52.450;20.706;2023-04-03T15:31:12;2.63;;;1.50;;
38653;SDS011;24413;52.450;20.706;2023-04-03T15:33:37;4.57;;;1.20;;
38653;SDS011;24413;52.450;20.706;2023-04-03T15:36:03;2.65;;;1.48;;
38653;SDS011;24413;52.450;20.706;2023-04-03T15:38:29;3.60;;;1.65;;
38653;SDS011;24413;52.450;20.706;2023-04-03T15:40:54;2.85;;;1.75;;
38653;SDS011;24413;52.450;20.706;2023-04-03T15:43:20;3.70;;;1.55;;
38653;SDS011;24413;52.450;20.706;2023-04-03T15:45:46;4.15;;;1.95;;
38653;SDS011;24413;52.450;20.706;2023-04-03T15:48:11;3.55;;;2.05;;
38653;SDS011;24413;52.450;20.706;2023-04-03T15:50:37;29.08;;;9.40;;
38653;SDS011;24413;52.450;20.706;2023-04-03T15:53:02;27.10;;;9.13;;
38653;SDS011;24413;52.450;20.706;2023-04-03T15:55:29;16.73;;;7.75;;
38653;SDS011;24413;52.450;20.706;2023-04-03T15:57:54;11.02;;;4.35;;
38653;SDS011;24413;52.450;20.706;2023-04-03T16:00:20;3.72;;;1.58;;
38653;SDS011;24413;52.450;20.706;2023-04-03T16:02:46;4.47;;;1.80;;
38653;SDS011;24413;52.450;20.706;2023-04-03T16:05:12;4.53;;;2.03;;
38653;SDS011;24413;52.450;20.706;2023-04-03T16:07:40;3.35;;;2.03;;
38653;SDS011;24413;52.450;20.706;2023-04-03T16:10:07;4.35;;;2.28;;
38653;SDS011;24413;52.450;20.706;2023-04-03T16:12:32;3.53;;;2.20;;
38653;SDS011;24413;52.450;20.706;2023-04-03T16:14:57;5.28;;;2.45;;
38653;SDS011;24413;52.450;20.706;2023-04-03T16:17:23;4.13;;;2.15;;
38653;SDS011;24413;52.450;20.706;2023-04-03T16:19:48;4.85;;;2.40;;
38653;SDS011;24413;52.450;20.706;2023-04-03T16:22:13;7.47;;;2.88;;
38653;SDS011;24413;52.450;20.706;2023-04-03T16:24:38;3.33;;;1.80;;
38653;SDS011;24413;52.450;20.706;2023-04-03T16:27:04;2.40;;;1.92;;
38653;SDS011;24413;52.450;20.706;2023-04-03T16:29:29;2.75;;;2.10;;
38653;SDS011;24413;52.450;20.706;2023-04-03T16:31:55;3.38;;;1.83;;
38653;SDS011;24413;52.450;20.706;2023-04-03T16:34:21;5.07;;;2.55;;